createdAt,value
2022-08-07T00:00:51.523Z,17.90
2022-08-07T00:03:18.246Z,17.80
2022-08-07T00:05:45.316Z,17.80
2022-08-07T00:08:14.421Z,17.70
2022-08-07T00:10:48.240Z,17.70
2022-08-07T00:13:26.651Z,17.70
2022-08-07T00:15:54.775Z,17.70
2022-08-07T00:18:25.128Z,17.70
2022-08-07T00:21:01.949Z,17.70
2022-08-07T00:23:31.792Z,17.60
2022-08-07T00:26:13.158Z,17.60
2022-08-07T00:28:56.609Z,17.60
2022-08-07T00:31:25.968Z,17.50
2022-08-07T00:34:05.220Z,17.50
2022-08-07T00:36:36.321Z,17.50
2022-08-07T00:39:05.388Z,17.40
2022-08-07T00:41:37.396Z,17.40
2022-08-07T00:44:12.180Z,17.30
2022-08-07T00:46:41.809Z,17.30
2022-08-07T00:49:10.490Z,17.30
2022-08-07T00:51:57.580Z,17.30
2022-08-07T00:54:25.710Z,17.20
2022-08-07T00:56:52.384Z,17.20
2022-08-07T00:59:32.667Z,17.20
2022-08-07T01:02:14.130Z,17.20
2022-08-07T01:04:53.909Z,17.20
2022-08-07T01:07:25.379Z,17.20
2022-08-07T01:10:05.317Z,17.10
2022-08-07T01:12:40.033Z,17.10
2022-08-07T01:15:20.773Z,17.10
2022-08-07T01:17:47.492Z,17.10
2022-08-07T01:20:16.653Z,17.10
2022-08-07T01:22:53.978Z,17.10
2022-08-07T01:25:53.722Z,17.00
2022-08-07T01:28:21.391Z,17.00
2022-08-07T01:30:51.294Z,17.00
2022-08-07T01:33:18.838Z,16.90
2022-08-07T01:35:54.558Z,16.90
2022-08-07T01:38:33.217Z,16.90
2022-08-07T01:41:01.970Z,16.90
2022-08-07T01:43:34.622Z,16.80
2022-08-07T01:46:05.296Z,16.80
2022-08-07T01:48:32.644Z,16.80
2022-08-07T01:51:24.444Z,16.80
2022-08-07T01:54:12.182Z,16.80
2022-08-07T01:56:55.184Z,16.70
2022-08-07T01:59:30.824Z,16.70
2022-08-07T02:02:10.602Z,16.70
2022-08-07T02:04:55.670Z,16.70
2022-08-07T02:07:36.114Z,16.70
2022-08-07T02:10:17.047Z,16.60
2022-08-07T02:12:50.040Z,16.60
2022-08-07T02:15:23.217Z,16.60
2022-08-07T02:17:54.954Z,16.60
2022-08-07T02:20:24.691Z,16.50
2022-08-07T02:22:57.602Z,16.50
2022-08-07T02:26:10.792Z,16.50
2022-08-07T02:28:15.513Z,16.50
2022-08-07T02:30:53.722Z,16.40
2022-08-07T02:33:21.541Z,16.40
2022-08-07T02:36:29.287Z,16.40
2022-08-07T02:38:39.340Z,16.40
2022-08-07T02:41:21.845Z,16.30
2022-08-07T02:43:49.986Z,16.30
2022-08-07T02:46:20.278Z,16.30
2022-08-07T02:48:55.071Z,16.30
2022-08-07T02:51:42.029Z,16.30
2022-08-07T02:54:11.350Z,16.30
2022-08-07T02:56:41.519Z,16.20
2022-08-07T02:59:16.885Z,16.20
2022-08-07T03:01:47.194Z,16.20
2022-08-07T03:04:20.084Z,16.20
2022-08-07T03:06:48.519Z,16.20
2022-08-07T03:09:42.272Z,16.10
2022-08-07T03:12:06.905Z,16.10
2022-08-07T03:14:39.619Z,16.10
2022-08-07T03:17:08.738Z,16.10
2022-08-07T03:19:37.245Z,16.10
2022-08-07T03:22:06.744Z,16.10
2022-08-07T03:24:34.696Z,16.00
2022-08-07T03:27:06.207Z,16.00
2022-08-07T03:29:44.576Z,16.00
2022-08-07T03:32:15.722Z,16.00
2022-08-07T03:35:00.962Z,16.00
2022-08-07T03:37:46.172Z,16.00
2022-08-07T03:40:20.419Z,15.90
2022-08-07T03:42:50.703Z,15.90
2022-08-07T03:45:20.937Z,15.90
2022-08-07T03:47:58.691Z,15.90
2022-08-07T03:50:28.592Z,15.90
2022-08-07T03:52:59.066Z,15.90
2022-08-07T03:55:58.142Z,15.80
2022-08-07T03:59:04.959Z,15.80
2022-08-07T04:01:04.761Z,15.80
2022-08-07T04:03:49.902Z,15.80
2022-08-07T04:06:37.698Z,15.80
2022-08-07T04:09:05.781Z,15.80
2022-08-07T04:12:27.436Z,15.70
2022-08-07T04:14:38.946Z,15.70
2022-08-07T04:17:19.832Z,15.70
2022-08-07T04:19:52.139Z,15.70
2022-08-07T04:22:19.873Z,15.70
2022-08-07T04:24:50.638Z,15.70
2022-08-07T04:27:25.252Z,15.70
2022-08-07T04:30:02.151Z,15.70
2022-08-07T04:32:34.267Z,15.70
2022-08-07T04:35:05.440Z,15.60
2022-08-07T04:37:52.773Z,15.60
2022-08-07T04:40:21.021Z,15.60
2022-08-07T04:42:51.743Z,15.60
2022-08-07T04:46:00.471Z,15.60
2022-08-07T04:48:12.752Z,15.60
2022-08-07T04:50:58.095Z,15.60
2022-08-07T04:54:01.302Z,15.60
2022-08-07T04:58:13.070Z,15.60
2022-08-07T05:00:10.909Z,15.60
2022-08-07T05:02:20.649Z,15.60
2022-08-07T05:04:54.747Z,15.60
2022-08-07T05:07:36.870Z,15.60
2022-08-07T05:10:23.039Z,15.60
2022-08-07T05:14:44.473Z,15.60
2022-08-07T05:15:49.411Z,15.60
2022-08-07T05:18:29.923Z,15.60
2022-08-07T05:21:02.426Z,15.60
2022-08-07T05:23:41.794Z,15.60
2022-08-07T05:26:18.804Z,15.60
2022-08-07T05:28:53.042Z,15.60
2022-08-07T05:31:23.522Z,15.60
2022-08-07T05:34:04.755Z,15.60
2022-08-07T05:36:35.419Z,15.60
2022-08-07T05:39:09.167Z,15.60
2022-08-07T05:42:01.880Z,15.60
2022-08-07T05:44:33.450Z,15.60
2022-08-07T05:47:01.670Z,15.70
2022-08-07T05:49:49.521Z,15.70
2022-08-07T05:52:20.601Z,15.70
2022-08-07T05:54:58.755Z,15.70
2022-08-07T05:57:37.914Z,15.70
2022-08-07T06:00:16.017Z,15.70
2022-08-07T06:02:47.786Z,15.80
2022-08-07T06:05:15.341Z,15.80
2022-08-07T06:08:14.135Z,15.80
2022-08-07T06:10:30.403Z,15.80
2022-08-07T06:12:57.766Z,15.90
2022-08-07T06:15:39.497Z,15.90
2022-08-07T06:18:14.088Z,15.90
2022-08-07T06:20:49.682Z,16.00
2022-08-07T06:24:37.217Z,16.00
2022-08-07T06:26:15.885Z,16.10
2022-08-07T06:28:53.361Z,16.10
2022-08-07T06:31:21.148Z,16.10
2022-08-07T06:33:51.306Z,16.20
2022-08-07T06:36:27.551Z,16.20
2022-08-07T06:40:16.427Z,16.30
2022-08-07T06:42:14.636Z,16.30
2022-08-07T06:44:43.112Z,16.40
2022-08-07T06:47:15.379Z,16.50
2022-08-07T06:49:51.599Z,16.50
2022-08-07T06:52:31.271Z,16.50
2022-08-07T06:55:33.421Z,16.60
2022-08-07T06:58:06.761Z,16.70
2022-08-07T07:00:42.365Z,16.70
2022-08-07T07:03:13.721Z,16.80
2022-08-07T07:06:02.625Z,16.80
2022-08-07T07:08:29.778Z,16.80
2022-08-07T07:10:58.973Z,16.90
2022-08-07T07:13:56.526Z,17.00
2022-08-07T07:16:23.694Z,17.10
2022-08-07T07:19:11.147Z,17.20
2022-08-07T07:22:04.983Z,17.30
2022-08-07T07:24:43.202Z,17.40
2022-08-07T07:27:35.530Z,17.60
2022-08-07T07:30:26.575Z,17.70
2022-08-07T07:33:06.166Z,17.90
2022-08-07T07:35:43.715Z,18.10
2022-08-07T07:38:25.390Z,18.20
2022-08-07T07:41:00.101Z,18.40
2022-08-07T07:43:47.688Z,18.60
2022-08-07T07:46:38.022Z,18.80
2022-08-07T07:49:08.924Z,19.10
2022-08-07T07:51:58.568Z,19.30
2022-08-07T07:54:27.449Z,19.50
2022-08-07T07:56:57.378Z,19.70
2022-08-07T07:59:52.575Z,19.90
2022-08-07T08:02:34.204Z,20.10
2022-08-07T08:05:05.084Z,20.40
2022-08-07T08:07:35.991Z,20.60
2022-08-07T08:10:10.834Z,20.80
2022-08-07T08:12:59.083Z,21.10
2022-08-07T08:15:29.403Z,21.20
2022-08-07T08:18:17.873Z,21.50
2022-08-07T08:21:04.956Z,21.70
2022-08-07T08:23:54.401Z,22.00
2022-08-07T08:26:40.247Z,22.20
2022-08-07T08:29:08.472Z,22.50
2022-08-07T08:31:58.802Z,22.70
2022-08-07T08:34:27.033Z,23.00
2022-08-07T08:36:58.331Z,23.30
2022-08-07T08:39:39.694Z,23.50
2022-08-07T08:42:36.900Z,23.70
2022-08-07T08:45:26.712Z,24.00
2022-08-07T08:48:41.968Z,24.20
2022-08-07T08:51:26.326Z,24.50
2022-08-07T08:54:10.948Z,24.80
2022-08-07T08:56:47.270Z,25.00
2022-08-07T08:59:42.166Z,25.20
2022-08-07T09:02:39.165Z,25.50
2022-08-07T09:05:37.360Z,25.70
2022-08-07T09:08:28.167Z,26.00
2022-08-07T09:11:14.054Z,26.20
2022-08-07T09:14:15.457Z,26.40
2022-08-07T09:16:58.770Z,26.70
2022-08-07T09:19:53.118Z,26.90
2022-08-07T09:24:28.800Z,27.20
2022-08-07T09:25:31.697Z,27.40
2022-08-07T09:29:24.498Z,27.60
2022-08-07T09:31:10.525Z,27.90
2022-08-07T09:34:08.127Z,28.10
2022-08-07T09:36:42.793Z,28.30
2022-08-07T09:39:53.590Z,28.50
2022-08-07T09:42:50.405Z,28.70
2022-08-07T09:47:23.984Z,28.90
2022-08-07T09:50:00.530Z,29.10
2022-08-07T09:52:33.648Z,29.40
2022-08-07T09:56:03.122Z,29.60
2022-08-07T09:58:20.466Z,29.80
2022-08-07T10:01:53.044Z,30.00
2022-08-07T10:04:52.717Z,30.10
2022-08-07T10:07:52.619Z,30.40
2022-08-07T10:11:17.177Z,30.60
2022-08-07T10:14:07.804Z,30.70
2022-08-07T10:17:16.844Z,30.90
2022-08-07T10:20:04.031Z,31.10
2022-08-07T10:22:53.569Z,31.20
2022-08-07T10:25:24.941Z,31.40
2022-08-07T10:28:57.790Z,31.50
2022-08-07T10:31:45.308Z,31.70
2022-08-07T10:34:42.000Z,31.80
2022-08-07T10:37:48.333Z,31.90
2022-08-07T10:40:31.066Z,32.10
2022-08-07T10:43:19.429Z,32.10
2022-08-07T10:46:08.023Z,32.30
2022-08-07T10:48:44.253Z,32.40
2022-08-07T10:51:39.765Z,32.60
2022-08-07T10:54:37.974Z,32.70
2022-08-07T10:57:34.423Z,32.80
2022-08-07T11:00:36.822Z,33.00
2022-08-07T11:03:19.948Z,33.10
2022-08-07T11:06:06.867Z,33.20
2022-08-07T11:08:56.212Z,33.40
2022-08-07T11:11:35.646Z,33.60
2022-08-07T11:14:45.608Z,33.70
2022-08-07T11:17:45.614Z,33.80
2022-08-07T11:20:36.938Z,34.00
2022-08-07T11:23:30.701Z,34.10
2022-08-07T11:26:28.181Z,34.20
2022-08-07T11:29:13.133Z,34.40
2022-08-07T11:32:08.084Z,34.50
2022-08-07T11:34:45.013Z,34.60
2022-08-07T11:37:38.417Z,34.70
2022-08-07T11:40:53.359Z,34.90
2022-08-07T11:43:54.512Z,35.10
2022-08-07T11:46:49.160Z,35.20
2022-08-07T11:50:31.489Z,35.30
2022-08-07T11:53:09.938Z,35.40
2022-08-07T11:56:27.650Z,35.60
2022-08-07T12:00:08.346Z,35.70
2022-08-07T12:02:37.275Z,35.70
2022-08-07T12:05:41.720Z,35.90
2022-08-07T12:08:25.646Z,36.00
2022-08-07T12:11:21.280Z,36.10
2022-08-07T12:13:51.983Z,36.20
2022-08-07T12:16:29.665Z,36.30
2022-08-07T12:20:03.964Z,36.40
2022-08-07T12:22:56.124Z,36.50
2022-08-07T12:26:28.974Z,36.60
2022-08-07T12:28:55.453Z,36.60
2022-08-07T12:32:03.706Z,36.70
2022-08-07T12:34:36.648Z,36.70
2022-08-07T12:37:08.221Z,36.80
2022-08-07T12:39:44.232Z,36.90
2022-08-07T12:42:27.917Z,36.90
2022-08-07T12:44:58.690Z,37.00
2022-08-07T12:47:45.857Z,37.10
2022-08-07T12:50:34.162Z,37.10
2022-08-07T12:53:22.262Z,37.20
2022-08-07T12:56:10.337Z,37.20
2022-08-07T12:58:43.857Z,37.20
2022-08-07T13:01:13.685Z,37.30
2022-08-07T13:04:31.544Z,37.30
2022-08-07T13:08:13.724Z,37.30
2022-08-07T13:10:44.820Z,37.30
2022-08-07T13:13:57.485Z,37.30
2022-08-07T13:16:48.943Z,37.30
2022-08-07T13:19:45.701Z,37.30
2022-08-07T13:22:31.407Z,37.20
2022-08-07T13:25:23.900Z,37.20
2022-08-07T13:28:12.480Z,37.30
2022-08-07T13:30:49.031Z,37.30
2022-08-07T13:34:33.453Z,37.20
2022-08-07T13:36:28.137Z,37.20
2022-08-07T13:39:02.758Z,37.30
2022-08-07T13:41:49.476Z,37.20
2022-08-07T13:44:26.417Z,37.10
2022-08-07T13:46:59.487Z,37.20
2022-08-07T13:50:33.289Z,37.10
2022-08-07T13:52:30.551Z,37.20
2022-08-07T13:55:06.977Z,37.10
2022-08-07T13:57:38.559Z,37.10
2022-08-07T14:00:13.450Z,37.20
2022-08-07T14:02:57.595Z,37.20
2022-08-07T14:05:37.582Z,37.20
2022-08-07T14:08:08.017Z,37.20
2022-08-07T14:10:41.939Z,37.10
2022-08-07T14:13:16.359Z,37.20
2022-08-07T14:15:45.128Z,37.10
2022-08-07T14:18:29.646Z,37.10
2022-08-07T14:21:08.113Z,37.10
2022-08-07T14:24:00.334Z,37.10
2022-08-07T14:26:50.358Z,37.00
2022-08-07T14:30:06.524Z,37.00
2022-08-07T14:32:12.337Z,37.00
2022-08-07T14:34:45.943Z,36.90
2022-08-07T14:37:18.394Z,36.90
2022-08-07T14:40:17.553Z,36.80
2022-08-07T14:43:00.863Z,36.80
2022-08-07T14:45:46.532Z,36.80
2022-08-07T14:48:20.325Z,36.70
2022-08-07T14:50:50.998Z,36.60
2022-08-07T14:54:03.649Z,36.50
2022-08-07T14:56:13.052Z,36.40
2022-08-07T14:58:43.925Z,36.20
2022-08-07T15:01:22.214Z,36.10
2022-08-07T15:03:52.692Z,35.90
2022-08-07T15:06:27.437Z,35.70
2022-08-07T15:08:55.751Z,35.50
2022-08-07T15:11:53.725Z,35.30
2022-08-07T15:14:30.603Z,35.10
2022-08-07T15:17:02.539Z,34.90
2022-08-07T15:20:31.586Z,34.70
2022-08-07T15:22:31.447Z,34.60
2022-08-07T15:25:17.001Z,34.40
2022-08-07T15:28:32.318Z,34.20
2022-08-07T15:30:59.386Z,34.00
2022-08-07T15:33:33.973Z,33.80
2022-08-07T15:36:05.697Z,33.60
2022-08-07T15:38:51.636Z,33.40
2022-08-07T15:42:44.389Z,33.20
2022-08-07T15:44:15.176Z,33.00
2022-08-07T15:46:55.534Z,32.80
2022-08-07T15:50:05.972Z,32.70
2022-08-07T15:52:30.473Z,32.40
2022-08-07T15:55:02.420Z,32.20
2022-08-07T15:57:47.693Z,32.00
2022-08-07T16:00:31.580Z,31.80
2022-08-07T16:03:20.569Z,31.60
2022-08-07T16:05:56.795Z,31.50
2022-08-07T16:08:37.867Z,31.20
2022-08-07T16:11:26.702Z,31.10
2022-08-07T16:14:12.639Z,30.80
2022-08-07T16:17:16.336Z,30.60
2022-08-07T16:20:41.646Z,30.30
2022-08-07T16:23:53.458Z,30.10
2022-08-07T16:26:31.043Z,30.00
2022-08-07T16:30:07.090Z,29.70
2022-08-07T16:32:34.522Z,29.60
2022-08-07T16:35:56.891Z,29.40
2022-08-07T16:38:58.544Z,29.20
2022-08-07T16:42:21.688Z,29.10
2022-08-07T16:46:21.120Z,28.90
2022-08-07T16:48:09.605Z,28.80
2022-08-07T16:51:20.774Z,28.70
2022-08-07T16:54:08.924Z,28.60
2022-08-07T16:57:03.867Z,28.50
2022-08-07T16:59:47.091Z,28.30
2022-08-07T17:02:53.241Z,28.20
2022-08-07T17:06:28.213Z,28.10
2022-08-07T17:09:10.789Z,28.00
2022-08-07T17:12:04.325Z,27.90
2022-08-07T17:14:59.909Z,27.70
2022-08-07T17:17:46.538Z,27.60
2022-08-07T17:20:41.246Z,27.50
2022-08-07T17:23:32.198Z,27.40
2022-08-07T17:26:50.142Z,27.30
2022-08-07T17:30:15.524Z,27.10
2022-08-07T17:32:52.490Z,27.10
2022-08-07T17:35:51.645Z,26.90
2022-08-07T17:38:33.283Z,26.80
2022-08-07T17:41:12.316Z,26.60
2022-08-07T17:44:06.472Z,26.60
2022-08-07T17:46:56.565Z,26.50
2022-08-07T17:50:03.853Z,26.40
2022-08-07T17:52:53.949Z,26.20
2022-08-07T17:55:55.735Z,26.10
2022-08-07T17:58:51.283Z,26.00
2022-08-07T18:01:36.257Z,25.90
2022-08-07T18:04:16.303Z,25.80
2022-08-07T18:07:19.319Z,25.70
2022-08-07T18:10:04.602Z,25.60
2022-08-07T18:12:35.379Z,25.50
2022-08-07T18:15:20.081Z,25.40
2022-08-07T18:18:44.901Z,25.20
2022-08-07T18:21:27.036Z,25.20
2022-08-07T18:24:09.056Z,25.10
2022-08-07T18:26:59.632Z,24.90
2022-08-07T18:30:06.027Z,24.90
2022-08-07T18:33:25.704Z,24.70
2022-08-07T18:36:05.900Z,24.60
2022-08-07T18:39:01.342Z,24.60
2022-08-07T18:42:06.806Z,24.40
2022-08-07T18:45:43.446Z,24.30
2022-08-07T18:48:00.829Z,24.20
2022-08-07T18:50:47.112Z,24.10
2022-08-07T18:53:33.420Z,24.00
2022-08-07T18:56:30.651Z,24.00
2022-08-07T18:59:10.601Z,23.90
2022-08-07T19:02:36.658Z,23.80
2022-08-07T19:05:26.861Z,23.70
2022-08-07T19:08:55.800Z,23.60
2022-08-07T19:12:03.975Z,23.50
2022-08-07T19:16:03.405Z,23.40
2022-08-07T19:18:15.277Z,23.30
2022-08-07T19:21:09.890Z,23.20
2022-08-07T19:23:58.355Z,23.20
2022-08-07T19:27:09.361Z,23.10
2022-08-07T19:31:05.189Z,23.00
2022-08-07T19:32:18.670Z,23.00
2022-08-07T19:34:59.387Z,22.90
2022-08-07T19:37:55.361Z,22.80
2022-08-07T19:40:31.623Z,22.70
2022-08-07T19:43:09.054Z,22.70
2022-08-07T19:46:09.872Z,22.60
2022-08-07T19:48:44.416Z,22.60
2022-08-07T19:51:53.126Z,22.40
2022-08-07T19:54:34.870Z,22.40
2022-08-07T19:58:00.291Z,22.30
2022-08-07T19:59:59.477Z,22.20
2022-08-07T20:02:39.049Z,22.20
2022-08-07T20:05:09.651Z,22.10
2022-08-07T20:07:46.015Z,22.10
2022-08-07T20:10:37.085Z,22.00
2022-08-07T20:13:15.838Z,22.00
2022-08-07T20:15:50.040Z,21.90
2022-08-07T20:18:21.264Z,21.90
2022-08-07T20:21:02.086Z,21.80
2022-08-07T20:23:42.984Z,21.80
2022-08-07T20:26:20.547Z,21.70
2022-08-07T20:29:01.519Z,21.70
2022-08-07T20:31:42.636Z,21.70
2022-08-07T20:34:11.030Z,21.60
2022-08-07T20:36:41.112Z,21.60
2022-08-07T20:39:31.117Z,21.50
2022-08-07T20:41:58.165Z,21.40
2022-08-07T20:44:33.064Z,21.40
2022-08-07T20:47:09.342Z,21.40
2022-08-07T20:49:59.820Z,21.40
2022-08-07T20:52:52.115Z,21.30
2022-08-07T20:55:25.387Z,21.20
2022-08-07T20:58:03.669Z,21.20
2022-08-07T21:00:42.556Z,21.20
2022-08-07T21:03:15.652Z,21.10
2022-08-07T21:05:56.831Z,21.10
2022-08-07T21:08:39.344Z,21.10
2022-08-07T21:11:14.433Z,21.00
2022-08-07T21:14:20.218Z,21.00
2022-08-07T21:18:01.015Z,20.90
2022-08-07T21:19:51.341Z,20.90
2022-08-07T21:22:29.129Z,20.90
2022-08-07T21:25:12.857Z,20.80
2022-08-07T21:28:05.829Z,20.80
2022-08-07T21:30:46.857Z,20.70
2022-08-07T21:33:50.868Z,20.70
2022-08-07T21:36:32.223Z,20.70
2022-08-07T21:39:48.055Z,20.70
2022-08-07T21:42:46.010Z,20.60
2022-08-07T21:47:50.176Z,20.50
2022-08-07T21:50:27.620Z,20.50
2022-08-07T21:53:16.196Z,20.40
2022-08-07T21:56:16.901Z,20.40
2022-08-07T21:59:22.395Z,20.40
2022-08-07T22:02:11.341Z,20.30
2022-08-07T22:04:53.841Z,20.30
2022-08-07T22:07:48.804Z,20.20
2022-08-07T22:10:24.726Z,20.20
2022-08-07T22:13:02.609Z,20.20
2022-08-07T22:16:42.409Z,20.10
2022-08-07T22:18:38.233Z,20.10
2022-08-07T22:22:02.678Z,20.10
2022-08-07T22:24:23.001Z,20.00
2022-08-07T22:27:18.473Z,20.00
2022-08-07T22:29:55.462Z,20.00
2022-08-07T22:32:42.266Z,20.00
2022-08-07T22:35:11.624Z,19.90
2022-08-07T22:38:04.285Z,19.90
2022-08-07T22:41:07.642Z,19.90
2022-08-07T22:44:12.990Z,19.90
2022-08-07T22:47:32.787Z,19.80
2022-08-07T22:50:20.801Z,19.80
2022-08-07T22:52:56.797Z,19.70
2022-08-07T22:55:45.921Z,19.70
2022-08-07T22:58:30.638Z,19.70
2022-08-07T23:01:49.602Z,19.60
2022-08-07T23:04:58.502Z,19.60
2022-08-07T23:07:54.191Z,19.60
